sensor_id;sensor_type;location;lat;lon;timestamp;P1;P2;P0
76238;PMS7003;65043;48.392;-4.472;2023-08-20T00:01:05;3.25;3.00;1.75
76238;PMS7003;65043;48.392;-4.472;2023-08-20T00:03:37;1.25;1.25;0.00
76238;PMS7003;65043;48.392;-4.472;2023-08-20T00:06:52;3.00;1.00;0.25
76238;PMS7003;65043;48.392;-4.472;2023-08-20T00:09:22;5.00;3.00;1.00
76238;PMS7003;65043;48.392;-4.472;2023-08-20T00:12:16;1.50;1.00;0.00
76238;PMS7003;65043;48.392;-4.472;2023-08-20T00:15:00;5.75;3.00;1.00
76238;PMS7003;65043;48.392;-4.472;2023-08-20T00:20:51;3.75;3.00;1.00
76238;PMS7003;65043;48.392;-4.472;2023-08-20T00:23:22;2.00;2.00;1.00
76238;PMS7003;65043;48.392;-4.472;2023-08-20T00:25:57;3.75;2.50;2.00
76238;PMS7003;65043;48.392;-4.472;2023-08-20T00:28:48;4.75;2.00;1.00
76238;PMS7003;65043;48.392;-4.472;2023-08-20T00:31:15;3.00;3.00;1.25
76238;PMS7003;65043;48.392;-4.472;2023-08-20T00:33:44;2.75;1.75;1.00
76238;PMS7003;65043;48.392;-4.472;2023-08-20T00:36:09;2.00;2.00;1.00
76238;PMS7003;65043;48.392;-4.472;2023-08-20T00:38:45;3.50;2.50;1.75
76238;PMS7003;65043;48.392;-4.472;2023-08-20T00:41:18;4.25;3.00;1.00
76238;PMS7003;65043;48.392;-4.472;2023-08-20T00:43:57;6.00;4.00;2.00
76238;PMS7003;65043;48.392;-4.472;2023-08-20T00:46:25;5.25;2.50;1.00
76238;PMS7003;65043;48.392;-4.472;2023-08-20T00:48:56;6.75;2.75;1.00
76238;PMS7003;65043;48.392;-4.472;2023-08-20T00:51:47;2.25;1.00;0.00
76238;PMS7003;65043;48.392;-4.472;2023-08-20T00:54:21;5.75;2.75;1.25
76238;PMS7003;65043;48.392;-4.472;2023-08-20T00:59:49;5.75;3.00;1.00
76238;PMS7003;65043;48.392;-4.472;2023-08-20T01:02:34;3.50;3.00;2.00
76238;PMS7003;65043;48.392;-4.472;2023-08-20T01:05:02;3.00;3.00;2.00
76238;PMS7003;65043;48.392;-4.472;2023-08-20T01:13:17;6.25;3.25;2.00
76238;PMS7003;65043;48.392;-4.472;2023-08-20T01:15:51;4.75;2.00;2.00
76238;PMS7003;65043;48.392;-4.472;2023-08-20T01:18:40;7.75;3.25;2.00
76238;PMS7003;65043;48.392;-4.472;2023-08-20T01:30:24;3.75;3.00;1.00
76238;PMS7003;65043;48.392;-4.472;2023-08-20T01:32:58;2.75;1.00;0.25
76238;PMS7003;65043;48.392;-4.472;2023-08-20T01:35:39;4.50;3.00;1.75
76238;PMS7003;65043;48.392;-4.472;2023-08-20T01:38:14;3.25;3.00;1.25
76238;PMS7003;65043;48.392;-4.472;2023-08-20T01:40:47;5.00;4.00;2.00
76238;PMS7003;65043;48.392;-4.472;2023-08-20T01:43:25;3.25;3.25;2.00
76238;PMS7003;65043;48.392;-4.472;2023-08-20T01:48:46;3.00;2.00;1.00
76238;PMS7003;65043;48.392;-4.472;2023-08-20T01:51:27;4.50;4.00;1.75
76238;PMS7003;65043;48.392;-4.472;2023-08-20T01:54:18;5.50;3.25;2.00
76238;PMS7003;65043;48.392;-4.472;2023-08-20T01:56:45;3.50;3.00;2.00
76238;PMS7003;65043;48.392;-4.472;2023-08-20T01:59:14;3.75;2.25;1.00
76238;PMS7003;65043;48.392;-4.472;2023-08-20T02:01:51;2.00;2.00;1.25
76238;PMS7003;65043;48.392;-4.472;2023-08-20T02:04:19;3.25;1.00;1.00
76238;PMS7003;65043;48.392;-4.472;2023-08-20T02:07:15;7.00;2.00;1.00
76238;PMS7003;65043;48.392;-4.472;2023-08-20T02:10:29;3.75;3.75;2.00
76238;PMS7003;65043;48.392;-4.472;2023-08-20T02:13:31;3.00;2.50;2.00
76238;PMS7003;65043;48.392;-4.472;2023-08-20T02:16:13;2.75;2.00;2.00
76238;PMS7003;65043;48.392;-4.472;2023-08-20T02:19:02;3.50;3.50;2.00
76238;PMS7003;65043;48.392;-4.472;2023-08-20T02:24:42;3.75;3.50;2.25
76238;PMS7003;65043;48.392;-4.472;2023-08-20T02:27:12;10.00;3.75;1.75
76238;PMS7003;65043;48.392;-4.472;2023-08-20T02:29:49;2.00;2.00;1.50
76238;PMS7003;65043;48.392;-4.472;2023-08-20T02:32:28;2.75;2.00;1.25
76238;PMS7003;65043;48.392;-4.472;2023-08-20T02:35:05;3.00;3.00;2.00
76238;PMS7003;65043;48.392;-4.472;2023-08-20T02:37:59;3.00;1.75;0.75
76238;PMS7003;65043;48.392;-4.472;2023-08-20T02:43:58;3.00;1.00;1.00
76238;PMS7003;65043;48.392;-4.472;2023-08-20T02:46:29;4.00;4.00;2.75
76238;PMS7003;65043;48.392;-4.472;2023-08-20T02:49:14;8.00;4.00;2.00
76238;PMS7003;65043;48.392;-4.472;2023-08-20T02:51:48;2.75;2.00;1.00
76238;PMS7003;65043;48.392;-4.472;2023-08-20T02:54:33;5.50;3.00;1.00
76238;PMS7003;65043;48.392;-4.472;2023-08-20T02:57:04;4.00;1.00;0.50
76238;PMS7003;65043;48.392;-4.472;2023-08-20T02:59:55;4.00;1.50;1.00
76238;PMS7003;65043;48.392;-4.472;2023-08-20T03:02:20;2.00;2.00;1.00
76238;PMS7003;65043;48.392;-4.472;2023-08-20T03:05:09;2.25;2.00;1.00
76238;PMS7003;65043;48.392;-4.472;2023-08-20T03:07:53;1.75;1.25;0.75
76238;PMS7003;65043;48.392;-4.472;2023-08-20T03:13:28;2.50;1.25;1.25
76238;PMS7003;65043;48.392;-4.472;2023-08-20T03:15:57;6.25;1.00;1.00
76238;PMS7003;65043;48.392;-4.472;2023-08-20T03:18:30;3.75;1.50;1.00
76238;PMS7003;65043;48.392;-4.472;2023-08-20T03:21:36;1.25;0.00;0.00
76238;PMS7003;65043;48.392;-4.472;2023-08-20T03:24:08;1.50;1.50;1.00
76238;PMS7003;65043;48.392;-4.472;2023-08-20T03:26:42;5.00;2.00;1.00
76238;PMS7003;65043;48.392;-4.472;2023-08-20T03:29:20;4.75;2.50;1.00
76238;PMS7003;65043;48.392;-4.472;2023-08-20T03:32:08;2.75;2.25;1.75
76238;PMS7003;65043;48.392;-4.472;2023-08-20T03:34:56;6.00;3.25;2.00
76238;PMS7003;65043;48.392;-4.472;2023-08-20T03:40:49;6.25;4.25;1.00
76238;PMS7003;65043;48.392;-4.472;2023-08-20T03:46:15;5.75;2.50;1.75
76238;PMS7003;65043;48.392;-4.472;2023-08-20T03:48:56;3.75;2.00;2.00
76238;PMS7003;65043;48.392;-4.472;2023-08-20T03:51:41;5.00;3.00;1.25
76238;PMS7003;65043;48.392;-4.472;2023-08-20T03:54:37;4.75;4.00;2.50
76238;PMS7003;65043;48.392;-4.472;2023-08-20T03:57:28;6.75;2.50;2.00
76238;PMS7003;65043;48.392;-4.472;2023-08-20T04:00:15;8.50;3.25;2.00
76238;PMS7003;65043;48.392;-4.472;2023-08-20T04:03:11;7.00;3.25;1.75
76238;PMS7003;65043;48.392;-4.472;2023-08-20T04:05:40;8.00;4.50;3.50
76238;PMS7003;65043;48.392;-4.472;2023-08-20T04:11:35;5.75;3.00;2.00
76238;PMS7003;65043;48.392;-4.472;2023-08-20T04:14:24;3.00;3.00;1.00
76238;PMS7003;65043;48.392;-4.472;2023-08-20T04:16:52;2.00;2.00;1.75
76238;PMS7003;65043;48.392;-4.472;2023-08-20T04:19:48;4.00;4.00;2.00
76238;PMS7003;65043;48.392;-4.472;2023-08-20T04:22:38;6.50;3.50;2.00
76238;PMS7003;65043;48.392;-4.472;2023-08-20T04:25:16;3.75;2.25;1.00
76238;PMS7003;65043;48.392;-4.472;2023-08-20T04:28:09;8.00;4.00;1.00
76238;PMS7003;65043;48.392;-4.472;2023-08-20T04:37:12;2.50;2.50;1.00
76238;PMS7003;65043;48.392;-4.472;2023-08-20T04:40:17;3.25;3.00;2.25
76238;PMS7003;65043;48.392;-4.472;2023-08-20T04:48:56;3.50;3.00;1.00
76238;PMS7003;65043;48.392;-4.472;2023-08-20T04:52:01;3.00;3.00;2.00
76238;PMS7003;65043;48.392;-4.472;2023-08-20T04:54:57;3.75;2.00;1.00
76238;PMS7003;65043;48.392;-4.472;2023-08-20T04:57:32;4.25;3.25;2.25
76238;PMS7003;65043;48.392;-4.472;2023-08-20T05:00:34;2.00;2.00;1.00
76238;PMS7003;65043;48.392;-4.472;2023-08-20T05:03:14;3.00;2.00;1.00
76238;PMS7003;65043;48.392;-4.472;2023-08-20T05:06:05;5.50;2.75;1.75
76238;PMS7003;65043;48.392;-4.472;2023-08-20T05:08:48;4.00;2.50;1.00
76238;PMS7003;65043;48.392;-4.472;2023-08-20T05:11:20;2.25;1.50;1.00
76238;PMS7003;65043;48.392;-4.472;2023-08-20T05:13:51;5.00;3.00;2.00
76238;PMS7003;65043;48.392;-4.472;2023-08-20T05:16:20;5.00;3.25;2.00
76238;PMS7003;65043;48.392;-4.472;2023-08-20T05:22:31;5.00;4.75;2.75
76238;PMS7003;65043;48.392;-4.472;2023-08-20T05:25:15;6.00;3.00;2.00
76238;PMS7003;65043;48.392;-4.472;2023-08-20T05:27:43;2.25;2.00;2.00
76238;PMS7003;65043;48.392;-4.472;2023-08-20T05:30:18;3.00;3.00;2.75
76238;PMS7003;65043;48.392;-4.472;2023-08-20T05:32:46;6.00;3.00;2.00
76238;PMS7003;65043;48.392;-4.472;2023-08-20T05:35:27;3.25;3.00;1.75
76238;PMS7003;65043;48.392;-4.472;2023-08-20T05:38:15;3.00;2.75;1.00
76238;PMS7003;65043;48.392;-4.472;2023-08-20T05:40:50;1.50;1.50;0.00
76238;PMS7003;65043;48.392;-4.472;2023-08-20T05:43:18;2.75;2.25;1.25
76238;PMS7003;65043;48.392;-4.472;2023-08-20T05:45:51;3.00;3.00;2.00
76238;PMS7003;65043;48.392;-4.472;2023-08-20T05:48:19;2.00;2.00;1.00
76238;PMS7003;65043;48.392;-4.472;2023-08-20T05:51:08;2.00;0.25;0.00
76238;PMS7003;65043;48.392;-4.472;2023-08-20T05:56:56;2.00;2.00;1.00
76238;PMS7003;65043;48.392;-4.472;2023-08-20T05:59:48;2.50;2.50;1.00
76238;PMS7003;65043;48.392;-4.472;2023-08-20T06:02:17;2.50;2.50;1.00
76238;PMS7003;65043;48.392;-4.472;2023-08-20T06:11:02;4.75;3.00;2.00
76238;PMS7003;65043;48.392;-4.472;2023-08-20T06:14:01;4.50;3.25;1.00
76238;PMS7003;65043;48.392;-4.472;2023-08-20T06:16:41;6.00;3.00;2.00
76238;PMS7003;65043;48.392;-4.472;2023-08-20T06:19:12;4.00;2.25;2.00
76238;PMS7003;65043;48.392;-4.472;2023-08-20T06:22:00;1.00;1.00;1.00
76238;PMS7003;65043;48.392;-4.472;2023-08-20T06:27:44;6.25;2.50;2.00
76238;PMS7003;65043;48.392;-4.472;2023-08-20T06:30:26;3.50;3.00;2.00
76238;PMS7003;65043;48.392;-4.472;2023-08-20T06:36:05;4.00;2.00;2.00
76238;PMS7003;65043;48.392;-4.472;2023-08-20T06:41:55;2.00;1.75;1.00
76238;PMS7003;65043;48.392;-4.472;2023-08-20T06:44:47;3.00;2.00;1.25
76238;PMS7003;65043;48.392;-4.472;2023-08-20T06:50:51;1.50;1.50;1.50
76238;PMS7003;65043;48.392;-4.472;2023-08-20T06:56:32;2.75;2.50;1.00
76238;PMS7003;65043;48.392;-4.472;2023-08-20T06:59:12;2.75;2.00;1.00
76238;PMS7003;65043;48.392;-4.472;2023-08-20T07:01:53;1.75;1.00;1.00
76238;PMS7003;65043;48.392;-4.472;2023-08-20T07:05:00;2.25;2.25;1.00
76238;PMS7003;65043;48.392;-4.472;2023-08-20T07:07:38;6.00;3.00;2.00
76238;PMS7003;65043;48.392;-4.472;2023-08-20T07:10:39;1.00;1.00;1.00
76238;PMS7003;65043;48.392;-4.472;2023-08-20T07:26:27;3.50;2.00;1.00
76238;PMS7003;65043;48.392;-4.472;2023-08-20T07:29:13;2.75;2.00;1.00
76238;PMS7003;65043;48.392;-4.472;2023-08-20T07:38:39;4.00;3.25;1.25
76238;PMS7003;65043;48.392;-4.472;2023-08-20T07:41:56;1.25;1.25;1.00
76238;PMS7003;65043;48.392;-4.472;2023-08-20T07:47:27;4.25;2.50;2.00
76238;PMS7003;65043;48.392;-4.472;2023-08-20T07:50:29;3.75;2.75;2.00
76238;PMS7003;65043;48.392;-4.472;2023-08-20T07:53:06;7.25;3.25;1.75
76238;PMS7003;65043;48.392;-4.472;2023-08-20T07:55:54;3.00;3.00;2.00
76238;PMS7003;65043;48.392;-4.472;2023-08-20T07:58:43;2.25;2.25;1.00
76238;PMS7003;65043;48.392;-4.472;2023-08-20T08:01:34;2.00;2.00;1.00
76238;PMS7003;65043;48.392;-4.472;2023-08-20T08:04:19;4.75;2.00;2.00
76238;PMS7003;65043;48.392;-4.472;2023-08-20T08:07:15;4.00;2.25;1.00
76238;PMS7003;65043;48.392;-4.472;2023-08-20T08:10:27;4.00;3.00;1.00
76238;PMS7003;65043;48.392;-4.472;2023-08-20T08:12:57;2.50;2.00;1.00
76238;PMS7003;65043;48.392;-4.472;2023-08-20T08:16:06;4.00;2.75;2.00
76238;PMS7003;65043;48.392;-4.472;2023-08-20T08:34:57;1.50;1.00;0.50
76238;PMS7003;65043;48.392;-4.472;2023-08-20T08:40:35;2.00;2.00;2.00
76238;PMS7003;65043;48.392;-4.472;2023-08-20T08:43:20;2.50;2.50;1.00
76238;PMS7003;65043;48.392;-4.472;2023-08-20T08:46:31;3.00;3.00;1.00
76238;PMS7003;65043;48.392;-4.472;2023-08-20T08:52:32;4.25;2.75;1.50
76238;PMS7003;65043;48.392;-4.472;2023-08-20T09:01:40;2.25;2.25;1.00
76238;PMS7003;65043;48.392;-4.472;2023-08-20T09:04:50;4.00;4.00;3.00
76238;PMS7003;65043;48.392;-4.472;2023-08-20T09:07:41;4.00;3.00;1.25
76238;PMS7003;65043;48.392;-4.472;2023-08-20T09:16:36;6.50;2.50;1.00
76238;PMS7003;65043;48.392;-4.472;2023-08-20T09:19:14;5.00;3.00;2.00
76238;PMS7003;65043;48.392;-4.472;2023-08-20T09:22:13;3.75;2.25;1.25
76238;PMS7003;65043;48.392;-4.472;2023-08-20T09:25:22;2.25;2.25;1.00
76238;PMS7003;65043;48.392;-4.472;2023-08-20T09:31:36;1.75;1.75;1.00
76238;PMS7003;65043;48.392;-4.472;2023-08-20T09:34:44;4.00;2.00;1.75
76238;PMS7003;65043;48.392;-4.472;2023-08-20T09:37:23;3.00;1.00;0.75
76238;PMS7003;65043;48.392;-4.472;2023-08-20T09:40:19;2.25;1.25;1.00
76238;PMS7003;65043;48.392;-4.472;2023-08-20T09:43:08;5.00;3.00;1.00
76238;PMS7003;65043;48.392;-4.472;2023-08-20T09:45:58;2.00;1.00;1.00
76238;PMS7003;65043;48.392;-4.472;2023-08-20T09:48:43;2.00;0.00;0.00
76238;PMS7003;65043;48.392;-4.472;2023-08-20T09:54:33;3.00;1.00;1.00
76238;PMS7003;65043;48.392;-4.472;2023-08-20T09:57:46;3.25;1.00;1.00
76238;PMS7003;65043;48.392;-4.472;2023-08-20T10:03:38;4.25;1.75;0.50
76238;PMS7003;65043;48.392;-4.472;2023-08-20T10:09:24;5.00;2.00;1.00
76238;PMS7003;65043;48.392;-4.472;2023-08-20T10:12:04;4.00;1.00;0.25
76238;PMS7003;65043;48.392;-4.472;2023-08-20T10:15:13;2.75;2.00;1.00
76238;PMS7003;65043;48.392;-4.472;2023-08-20T10:18:07;4.50;2.00;0.50
76238;PMS7003;65043;48.392;-4.472;2023-08-20T10:21:01;3.25;3.00;2.50
76238;PMS7003;65043;48.392;-4.472;2023-08-20T10:23:37;2.00;1.75;1.50
76238;PMS7003;65043;48.392;-4.472;2023-08-20T10:26:35;4.75;2.00;1.00
76238;PMS7003;65043;48.392;-4.472;2023-08-20T10:32:53;1.50;1.50;1.00
76238;PMS7003;65043;48.392;-4.472;2023-08-20T10:38:43;1.50;1.50;1.00
76238;PMS7003;65043;48.392;-4.472;2023-08-20T10:41:44;3.50;2.50;1.00
76238;PMS7003;65043;48.392;-4.472;2023-08-20T10:47:50;1.75;1.75;1.00
76238;PMS7003;65043;48.392;-4.472;2023-08-20T10:50:51;1.50;1.50;0.50
76238;PMS7003;65043;48.392;-4.472;2023-08-20T10:53:37;2.50;2.00;1.00
76238;PMS7003;65043;48.392;-4.472;2023-08-20T11:03:24;2.50;1.25;0.50
76238;PMS7003;65043;48.392;-4.472;2023-08-20T11:06:15;2.25;2.00;1.50
76238;PMS7003;65043;48.392;-4.472;2023-08-20T11:12:46;2.00;2.00;1.00
76238;PMS7003;65043;48.392;-4.472;2023-08-20T11:15:39;1.75;1.50;0.25
76238;PMS7003;65043;48.392;-4.472;2023-08-20T11:22:22;2.00;2.00;0.75
76238;PMS7003;65043;48.392;-4.472;2023-08-20T11:44:45;1.00;1.00;0.00
76238;PMS7003;65043;48.392;-4.472;2023-08-20T11:47:29;3.00;1.75;1.00
76238;PMS7003;65043;48.392;-4.472;2023-08-20T11:53:28;2.25;1.00;1.00
76238;PMS7003;65043;48.392;-4.472;2023-08-20T11:56:44;1.00;1.00;0.75
76238;PMS7003;65043;48.392;-4.472;2023-08-20T11:59:40;1.00;1.00;0.00
76238;PMS7003;65043;48.392;-4.472;2023-08-20T12:09:17;2.75;2.00;1.00
76238;PMS7003;65043;48.392;-4.472;2023-08-20T12:12:38;1.00;1.00;0.00
76238;PMS7003;65043;48.392;-4.472;2023-08-20T12:15:10;1.00;1.00;0.00
76238;PMS7003;65043;48.392;-4.472;2023-08-20T12:25:16;1.00;1.00;0.25
76238;PMS7003;65043;48.392;-4.472;2023-08-20T12:28:03;1.00;1.00;0.25
76238;PMS7003;65043;48.392;-4.472;2023-08-20T12:40:14;1.00;1.00;0.00
76238;PMS7003;65043;48.392;-4.472;2023-08-20T12:43:32;1.00;1.00;0.00
76238;PMS7003;65043;48.392;-4.472;2023-08-20T12:46:21;1.25;1.25;0.75
76238;PMS7003;65043;48.392;-4.472;2023-08-20T12:49:05;1.75;1.25;0.25
76238;PMS7003;65043;48.392;-4.472;2023-08-20T12:51:41;3.75;1.75;1.00
76238;PMS7003;65043;48.392;-4.472;2023-08-20T13:00:58;3.50;0.75;0.00
76238;PMS7003;65043;48.392;-4.472;2023-08-20T13:07:00;1.00;1.00;0.25
76238;PMS7003;65043;48.392;-4.472;2023-08-20T13:09:48;2.00;1.00;0.00
76238;PMS7003;65043;48.392;-4.472;2023-08-20T13:12:35;0.75;0.75;0.00
76238;PMS7003;65043;48.392;-4.472;2023-08-20T13:15:37;0.25;0.25;0.00
76238;PMS7003;65043;48.392;-4.472;2023-08-20T13:18:17;1.00;1.00;0.25
76238;PMS7003;65043;48.392;-4.472;2023-08-20T13:21:02;1.50;1.00;1.00
76238;PMS7003;65043;48.392;-4.472;2023-08-20T13:26:34;1.00;1.00;0.00
76238;PMS7003;65043;48.392;-4.472;2023-08-20T13:29:47;1.00;1.00;1.00
76238;PMS7003;65043;48.392;-4.472;2023-08-20T13:32:37;1.00;1.00;1.00
76238;PMS7003;65043;48.392;-4.472;2023-08-20T13:35:12;6.50;2.00;1.00
76238;PMS7003;65043;48.392;-4.472;2023-08-20T13:37:39;1.50;0.25;0.25
76238;PMS7003;65043;48.392;-4.472;2023-08-20T13:40:14;0.25;0.25;0.25
76238;PMS7003;65043;48.392;-4.472;2023-08-20T13:42:48;1.00;1.00;0.00
76238;PMS7003;65043;48.392;-4.472;2023-08-20T13:45:16;1.75;1.75;1.00
76238;PMS7003;65043;48.392;-4.472;2023-08-20T13:48:02;0.25;0.25;0.00
76238;PMS7003;65043;48.392;-4.472;2023-08-20T13:50:48;2.00;2.00;0.00
76238;PMS7003;65043;48.392;-4.472;2023-08-20T13:53:31;0.75;0.75;0.00
76238;PMS7003;65043;48.392;-4.472;2023-08-20T13:56:47;0.50;0.00;0.00
76238;PMS7003;65043;48.392;-4.472;2023-08-20T13:59:46;3.00;1.00;1.00
76238;PMS7003;65043;48.392;-4.472;2023-08-20T14:02:31;2.25;1.25;1.00
76238;PMS7003;65043;48.392;-4.472;2023-08-20T14:05:15;2.00;1.75;1.00
76238;PMS7003;65043;48.392;-4.472;2023-08-20T14:08:05;1.75;0.25;0.25
76238;PMS7003;65043;48.392;-4.472;2023-08-20T14:11:11;1.75;1.75;0.75
76238;PMS7003;65043;48.392;-4.472;2023-08-20T14:13:39;3.00;1.00;0.00
76238;PMS7003;65043;48.392;-4.472;2023-08-20T14:16:32;2.00;1.00;0.00
76238;PMS7003;65043;48.392;-4.472;2023-08-20T14:19:18;2.50;1.00;0.00
76238;PMS7003;65043;48.392;-4.472;2023-08-20T14:21:49;1.00;1.00;0.00
76238;PMS7003;65043;48.392;-4.472;2023-08-20T14:27:41;0.50;0.50;0.25
76238;PMS7003;65043;48.392;-4.472;2023-08-20T14:30:26;0.75;0.75;0.75
76238;PMS7003;65043;48.392;-4.472;2023-08-20T14:33:29;1.00;1.00;0.25
76238;PMS7003;65043;48.392;-4.472;2023-08-20T14:36:00;0.00;0.00;0.00
76238;PMS7003;65043;48.392;-4.472;2023-08-20T14:38:45;2.75;0.00;0.00
76238;PMS7003;65043;48.392;-4.472;2023-08-20T14:41:29;2.00;0.00;0.00
76238;PMS7003;65043;48.392;-4.472;2023-08-20T14:44:02;0.00;0.00;0.00
76238;PMS7003;65043;48.392;-4.472;2023-08-20T14:49:38;2.00;2.00;0.75
76238;PMS7003;65043;48.392;-4.472;2023-08-20T14:55:20;0.25;0.25;0.25
76238;PMS7003;65043;48.392;-4.472;2023-08-20T14:58:10;1.00;1.00;0.00
76238;PMS7003;65043;48.392;-4.472;2023-08-20T15:01:18;2.00;0.00;0.00
76238;PMS7003;65043;48.392;-4.472;2023-08-20T15:03:54;4.25;1.75;1.00
76238;PMS7003;65043;48.392;-4.472;2023-08-20T15:06:49;2.50;0.25;0.00
76238;PMS7003;65043;48.392;-4.472;2023-08-20T15:09:31;3.00;1.00;0.00
76238;PMS7003;65043;48.392;-4.472;2023-08-20T15:12:02;1.00;1.00;1.00
76238;PMS7003;65043;48.392;-4.472;2023-08-20T15:17:25;2.00;2.00;0.00
76238;PMS7003;65043;48.392;-4.472;2023-08-20T15:19:56;0.00;0.00;0.00
76238;PMS7003;65043;48.392;-4.472;2023-08-20T15:26:03;0.75;0.00;0.00
76238;PMS7003;65043;48.392;-4.472;2023-08-20T15:28:54;1.25;1.00;0.50
76238;PMS7003;65043;48.392;-4.472;2023-08-20T15:31:50;2.00;0.50;0.00
76238;PMS7003;65043;48.392;-4.472;2023-08-20T15:34:36;1.25;1.25;0.00
76238;PMS7003;65043;48.392;-4.472;2023-08-20T15:37:18;0.75;0.75;0.00
76238;PMS7003;65043;48.392;-4.472;2023-08-20T15:40:04;2.00;0.00;0.00
76238;PMS7003;65043;48.392;-4.472;2023-08-20T15:43:08;1.00;1.00;0.25
76238;PMS7003;65043;48.392;-4.472;2023-08-20T15:45:44;1.00;1.00;0.25
76238;PMS7003;65043;48.392;-4.472;2023-08-20T15:48:22;1.00;1.00;0.00
76238;PMS7003;65043;48.392;-4.472;2023-08-20T15:51:11;2.00;1.75;0.00
76238;PMS7003;65043;48.392;-4.472;2023-08-20T15:53:50;1.00;1.00;1.00
76238;PMS7003;65043;48.392;-4.472;2023-08-20T15:56:38;1.25;1.00;1.00
76238;PMS7003;65043;48.392;-4.472;2023-08-20T15:59:29;1.00;1.00;0.00
76238;PMS7003;65043;48.392;-4.472;2023-08-20T16:02:12;1.50;1.50;1.00
76238;PMS7003;65043;48.392;-4.472;2023-08-20T16:04:59;1.50;1.00;0.50
76238;PMS7003;65043;48.392;-4.472;2023-08-20T16:07:52;1.00;0.25;0.00
76238;PMS7003;65043;48.392;-4.472;2023-08-20T16:10:25;3.00;1.00;0.50
76238;PMS7003;65043;48.392;-4.472;2023-08-20T16:12:53;1.25;1.00;0.00
76238;PMS7003;65043;48.392;-4.472;2023-08-20T16:15:50;0.00;0.00;0.00
76238;PMS7003;65043;48.392;-4.472;2023-08-20T16:18:23;2.50;1.00;0.75
76238;PMS7003;65043;48.392;-4.472;2023-08-20T16:20:59;2.00;1.00;1.00
76238;PMS7003;65043;48.392;-4.472;2023-08-20T16:23:34;0.50;0.50;0.50
76238;PMS7003;65043;48.392;-4.472;2023-08-20T16:26:12;0.75;0.75;0.00
76238;PMS7003;65043;48.392;-4.472;2023-08-20T16:28:39;1.25;1.25;0.00
76238;PMS7003;65043;48.392;-4.472;2023-08-20T16:31:37;1.00;1.00;1.00
76238;PMS7003;65043;48.392;-4.472;2023-08-20T16:34:30;0.00;0.00;0.00
76238;PMS7003;65043;48.392;-4.472;2023-08-20T16:37:14;1.00;1.00;0.25
76238;PMS7003;65043;48.392;-4.472;2023-08-20T16:39:42;3.00;1.25;0.50
76238;PMS7003;65043;48.392;-4.472;2023-08-20T16:42:16;2.00;2.00;0.25
76238;PMS7003;65043;48.392;-4.472;2023-08-20T16:44:48;2.25;0.50;0.00
76238;PMS7003;65043;48.392;-4.472;2023-08-20T16:47:30;0.75;0.75;0.75
76238;PMS7003;65043;48.392;-4.472;2023-08-20T16:50:13;1.00;1.00;1.00
76238;PMS7003;65043;48.392;-4.472;2023-08-20T16:52:51;4.00;1.00;0.00
76238;PMS7003;65043;48.392;-4.472;2023-08-20T16:55:26;1.00;0.75;0.00
76238;PMS7003;65043;48.392;-4.472;2023-08-20T16:58:01;1.50;0.75;0.75
76238;PMS7003;65043;48.392;-4.472;2023-08-20T17:00:44;2.00;1.00;0.75
76238;PMS7003;65043;48.392;-4.472;2023-08-20T17:03:37;1.75;1.75;0.00
76238;PMS7003;65043;48.392;-4.472;2023-08-20T17:06:15;1.50;1.00;1.00
76238;PMS7003;65043;48.392;-4.472;2023-08-20T17:08:43;4.25;1.25;0.25
76238;PMS7003;65043;48.392;-4.472;2023-08-20T17:11:13;2.00;2.00;1.00
76238;PMS7003;65043;48.392;-4.472;2023-08-20T17:13:43;3.00;1.00;0.75
76238;PMS7003;65043;48.392;-4.472;2023-08-20T17:16:11;3.50;2.00;1.00
76238;PMS7003;65043;48.392;-4.472;2023-08-20T17:18:49;2.75;1.25;1.00
76238;PMS7003;65043;48.392;-4.472;2023-08-20T17:21:23;2.25;1.75;1.00
76238;PMS7003;65043;48.392;-4.472;2023-08-20T17:23:53;3.00;1.75;1.00
76238;PMS7003;65043;48.392;-4.472;2023-08-20T17:26:19;1.75;1.75;0.00
76238;PMS7003;65043;48.392;-4.472;2023-08-20T17:28:44;1.75;1.00;0.00
76238;PMS7003;65043;48.392;-4.472;2023-08-20T17:31:12;2.00;1.00;0.75
76238;PMS7003;65043;48.392;-4.472;2023-08-20T17:33:55;2.25;2.25;1.25
76238;PMS7003;65043;48.392;-4.472;2023-08-20T17:36:41;1.25;1.25;1.00
76238;PMS7003;65043;48.392;-4.472;2023-08-20T17:39:24;2.00;1.00;1.00
76238;PMS7003;65043;48.392;-4.472;2023-08-20T17:41:52;2.25;2.00;1.00
76238;PMS7003;65043;48.392;-4.472;2023-08-20T17:44:19;3.75;1.75;1.00
76238;PMS7003;65043;48.392;-4.472;2023-08-20T17:46:55;1.00;1.00;1.00
76238;PMS7003;65043;48.392;-4.472;2023-08-20T17:49:23;2.00;0.50;0.25
76238;PMS7003;65043;48.392;-4.472;2023-08-20T17:51:53;1.00;1.00;0.75
76238;PMS7003;65043;48.392;-4.472;2023-08-20T17:54:21;4.50;1.00;0.00
76238;PMS7003;65043;48.392;-4.472;2023-08-20T17:56:56;3.25;1.25;0.75
76238;PMS7003;65043;48.392;-4.472;2023-08-20T17:59:26;3.75;1.00;0.00
76238;PMS7003;65043;48.392;-4.472;2023-08-20T18:01:54;2.00;2.00;1.00
76238;PMS7003;65043;48.392;-4.472;2023-08-20T18:04:24;5.75;3.25;2.25
76238;PMS7003;65043;48.392;-4.472;2023-08-20T18:06:50;2.00;2.00;1.00
76238;PMS7003;65043;48.392;-4.472;2023-08-20T18:09:25;5.50;5.00;3.50
76238;PMS7003;65043;48.392;-4.472;2023-08-20T18:12:01;7.75;7.50;4.00
76238;PMS7003;65043;48.392;-4.472;2023-08-20T18:14:27;7.25;6.25;4.00
76238;PMS7003;65043;48.392;-4.472;2023-08-20T18:17:03;6.00;5.25;3.00
76238;PMS7003;65043;48.392;-4.472;2023-08-20T18:19:29;9.25;5.00;3.00
76238;PMS7003;65043;48.392;-4.472;2023-08-20T18:21:56;4.00;3.00;2.00
76238;PMS7003;65043;48.392;-4.472;2023-08-20T18:24:32;6.00;3.75;2.00
76238;PMS7003;65043;48.392;-4.472;2023-08-20T18:27:04;3.00;3.00;2.00
76238;PMS7003;65043;48.392;-4.472;2023-08-20T18:29:35;2.50;1.00;1.00
76238;PMS7003;65043;48.392;-4.472;2023-08-20T18:32:08;2.75;2.00;1.25
76238;PMS7003;65043;48.392;-4.472;2023-08-20T18:34:33;8.00;5.00;2.50
76238;PMS7003;65043;48.392;-4.472;2023-08-20T18:37:09;7.00;5.75;4.25
76238;PMS7003;65043;48.392;-4.472;2023-08-20T18:39:39;11.00;9.25;6.00
76238;PMS7003;65043;48.392;-4.472;2023-08-20T18:42:07;6.75;4.75;3.25
76238;PMS7003;65043;48.392;-4.472;2023-08-20T18:44:50;14.00;8.75;5.25
76238;PMS7003;65043;48.392;-4.472;2023-08-20T18:47:36;5.50;5.00;4.00
76238;PMS7003;65043;48.392;-4.472;2023-08-20T18:50:07;8.50;4.75;3.50
76238;PMS7003;65043;48.392;-4.472;2023-08-20T18:52:36;8.25;6.25;4.00
76238;PMS7003;65043;48.392;-4.472;2023-08-20T18:55:26;3.00;3.00;1.00
76238;PMS7003;65043;48.392;-4.472;2023-08-20T18:57:54;3.00;1.00;1.00
76238;PMS7003;65043;48.392;-4.472;2023-08-20T19:00:24;4.50;2.00;1.00
76238;PMS7003;65043;48.392;-4.472;2023-08-20T19:02:55;2.75;2.50;1.50
76238;PMS7003;65043;48.392;-4.472;2023-08-20T19:05:23;1.75;1.75;1.00
76238;PMS7003;65043;48.392;-4.472;2023-08-20T19:07:49;2.25;1.00;1.00
76238;PMS7003;65043;48.392;-4.472;2023-08-20T19:10:19;1.00;1.00;0.75
76238;PMS7003;65043;48.392;-4.472;2023-08-20T19:12:47;2.00;1.00;0.00
76238;PMS7003;65043;48.392;-4.472;2023-08-20T19:15:13;1.25;1.00;1.00
76238;PMS7003;65043;48.392;-4.472;2023-08-20T19:17:39;3.50;2.50;1.00
76238;PMS7003;65043;48.392;-4.472;2023-08-20T19:20:09;3.00;2.00;1.00
76238;PMS7003;65043;48.392;-4.472;2023-08-20T19:22:41;2.00;1.00;0.00
76238;PMS7003;65043;48.392;-4.472;2023-08-20T19:25:09;3.50;1.00;1.00
76238;PMS7003;65043;48.392;-4.472;2023-08-20T19:27:37;3.75;2.00;1.00
76238;PMS7003;65043;48.392;-4.472;2023-08-20T19:30:07;2.25;1.25;1.00
76238;PMS7003;65043;48.392;-4.472;2023-08-20T19:32:33;3.50;2.00;1.00
76238;PMS7003;65043;48.392;-4.472;2023-08-20T19:34:58;1.25;1.00;1.00
76238;PMS7003;65043;48.392;-4.472;2023-08-20T19:37:30;1.00;1.00;1.00
76238;PMS7003;65043;48.392;-4.472;2023-08-20T19:40:05;3.25;2.50;1.00
76238;PMS7003;65043;48.392;-4.472;2023-08-20T19:42:33;3.00;1.25;1.00
76238;PMS7003;65043;48.392;-4.472;2023-08-20T19:45:04;2.00;2.00;1.25